sensor_id;sensor_type;location;lat;lon;timestamp;P1;durP1;ratioP1;P2;durP2;ratioP2
39016;SDS011;24784;45.582;5.276;2022-09-12T00:01:07;2.05;;;1.10;;
39016;SDS011;24784;45.582;5.276;2022-09-12T00:03:41;2.15;;;0.95;;
39016;SDS011;24784;45.582;5.276;2022-09-12T00:06:08;3.45;;;1.27;;
39016;SDS011;24784;45.582;5.276;2022-09-12T00:08:36;1.25;;;1.10;;
39016;SDS011;24784;45.582;5.276;2022-09-12T00:11:06;2.83;;;1.27;;
39016;SDS011;24784;45.582;5.276;2022-09-12T00:13:33;5.47;;;1.38;;
39016;SDS011;24784;45.582;5.276;2022-09-12T00:16:00;2.72;;;1.30;;
39016;SDS011;24784;45.582;5.276;2022-09-12T00:18:26;5.75;;;1.35;;
39016;SDS011;24784;45.582;5.276;2022-09-12T00:20:51;4.35;;;1.30;;
39016;SDS011;24784;45.582;5.276;2022-09-12T00:23:17;2.78;;;1.00;;
39016;SDS011;24784;45.582;5.276;2022-09-12T00:25:43;2.50;;;1.20;;
39016;SDS011;24784;45.582;5.276;2022-09-12T00:28:11;4.70;;;1.30;;
39016;SDS011;24784;45.582;5.276;2022-09-12T00:30:41;1.95;;;1.75;;
39016;SDS011;24784;45.582;5.276;2022-09-12T00:33:08;2.97;;;1.30;;
39016;SDS011;24784;45.582;5.276;2022-09-12T00:35:45;2.35;;;1.25;;
39016;SDS011;24784;45.582;5.276;2022-09-12T00:38:17;2.35;;;1.20;;
39016;SDS011;24784;45.582;5.276;2022-09-12T00:40:44;1.73;;;1.00;;
39016;SDS011;24784;45.582;5.276;2022-09-12T00:45:59;4.63;;;1.17;;
39016;SDS011;24784;45.582;5.276;2022-09-12T00:48:48;3.88;;;1.67;;
39016;SDS011;24784;45.582;5.276;2022-09-12T00:51:34;1.63;;;1.13;;
39016;SDS011;24784;45.582;5.276;2022-09-12T00:54:02;2.63;;;1.25;;
39016;SDS011;24784;45.582;5.276;2022-09-12T00:56:32;2.08;;;1.13;;
39016;SDS011;24784;45.582;5.276;2022-09-12T00:59:04;1.10;;;1.00;;
39016;SDS011;24784;45.582;5.276;2022-09-12T01:01:51;1.88;;;1.10;;
39016;SDS011;24784;45.582;5.276;2022-09-12T01:04:18;4.50;;;1.45;;
39016;SDS011;24784;45.582;5.276;2022-09-12T01:06:46;4.03;;;1.10;;
39016;SDS011;24784;45.582;5.276;2022-09-12T01:09:16;4.80;;;1.40;;
39016;SDS011;24784;45.582;5.276;2022-09-12T01:11:45;1.70;;;1.33;;
39016;SDS011;24784;45.582;5.276;2022-09-12T01:14:13;3.55;;;1.30;;
39016;SDS011;24784;45.582;5.276;2022-09-12T01:16:41;4.85;;;1.35;;
39016;SDS011;24784;45.582;5.276;2022-09-12T01:27:18;5.57;;;1.05;;
39016;SDS011;24784;45.582;5.276;2022-09-12T01:33:11;3.23;;;0.90;;
39016;SDS011;24784;45.582;5.276;2022-09-12T01:38:38;4.45;;;1.13;;
39016;SDS011;24784;45.582;5.276;2022-09-12T01:44:13;1.33;;;1.00;;
39016;SDS011;24784;45.582;5.276;2022-09-12T01:49:19;2.55;;;1.27;;
39016;SDS011;24784;45.582;5.276;2022-09-12T01:52:04;2.17;;;1.17;;
39016;SDS011;24784;45.582;5.276;2022-09-12T01:54:45;1.83;;;1.13;;
39016;SDS011;24784;45.582;5.276;2022-09-12T01:57:29;1.23;;;1.00;;
39016;SDS011;24784;45.582;5.276;2022-09-12T02:00:04;4.45;;;1.33;;
39016;SDS011;24784;45.582;5.276;2022-09-12T02:02:38;2.17;;;1.52;;
39016;SDS011;24784;45.582;5.276;2022-09-12T02:05:10;1.98;;;1.35;;
39016;SDS011;24784;45.582;5.276;2022-09-12T02:07:44;5.00;;;1.20;;
39016;SDS011;24784;45.582;5.276;2022-09-12T02:10:22;2.00;;;1.10;;
39016;SDS011;24784;45.582;5.276;2022-09-12T02:12:57;2.47;;;1.10;;
39016;SDS011;24784;45.582;5.276;2022-09-12T02:15:37;2.72;;;1.40;;
39016;SDS011;24784;45.582;5.276;2022-09-12T02:18:07;2.75;;;1.20;;
39016;SDS011;24784;45.582;5.276;2022-09-12T02:20:36;2.25;;;1.10;;
39016;SDS011;24784;45.582;5.276;2022-09-12T02:23:05;1.67;;;1.20;;
39016;SDS011;24784;45.582;5.276;2022-09-12T02:25:36;1.80;;;1.25;;
39016;SDS011;24784;45.582;5.276;2022-09-12T02:28:11;1.23;;;1.10;;
39016;SDS011;24784;45.582;5.276;2022-09-12T02:30:44;2.63;;;1.20;;
39016;SDS011;24784;45.582;5.276;2022-09-12T02:33:25;1.98;;;1.00;;
39016;SDS011;24784;45.582;5.276;2022-09-12T02:36:03;1.40;;;1.05;;
39016;SDS011;24784;45.582;5.276;2022-09-12T02:38:52;2.42;;;1.13;;
39016;SDS011;24784;45.582;5.276;2022-09-12T02:41:20;2.78;;;1.15;;
39016;SDS011;24784;45.582;5.276;2022-09-12T02:43:47;4.15;;;1.83;;
39016;SDS011;24784;45.582;5.276;2022-09-12T02:46:16;1.85;;;1.00;;
39016;SDS011;24784;45.582;5.276;2022-09-12T02:48:47;4.55;;;1.40;;
39016;SDS011;24784;45.582;5.276;2022-09-12T02:51:13;1.38;;;1.23;;
39016;SDS011;24784;45.582;5.276;2022-09-12T02:53:39;1.52;;;1.27;;
39016;SDS011;24784;45.582;5.276;2022-09-12T02:56:06;2.08;;;1.50;;
39016;SDS011;24784;45.582;5.276;2022-09-12T02:58:35;2.50;;;1.40;;
39016;SDS011;24784;45.582;5.276;2022-09-12T03:01:11;2.13;;;1.00;;
39016;SDS011;24784;45.582;5.276;2022-09-12T03:15:27;3.53;;;1.20;;
39016;SDS011;24784;45.582;5.276;2022-09-12T03:20:49;2.72;;;1.20;;
39016;SDS011;24784;45.582;5.276;2022-09-12T03:23:32;2.83;;;1.10;;
39016;SDS011;24784;45.582;5.276;2022-09-12T03:26:05;1.35;;;1.20;;
39016;SDS011;24784;45.582;5.276;2022-09-12T03:28:35;1.88;;;1.00;;
39016;SDS011;24784;45.582;5.276;2022-09-12T03:31:15;1.48;;;1.38;;
39016;SDS011;24784;45.582;5.276;2022-09-12T03:33:42;3.20;;;1.17;;
39016;SDS011;24784;45.582;5.276;2022-09-12T03:36:16;1.50;;;1.13;;
39016;SDS011;24784;45.582;5.276;2022-09-12T03:38:46;5.53;;;1.50;;
39016;SDS011;24784;45.582;5.276;2022-09-12T03:41:12;5.05;;;1.10;;
39016;SDS011;24784;45.582;5.276;2022-09-12T03:43:38;2.85;;;1.10;;
39016;SDS011;24784;45.582;5.276;2022-09-12T03:46:04;1.20;;;1.10;;
39016;SDS011;24784;45.582;5.276;2022-09-12T03:48:29;1.73;;;1.13;;
39016;SDS011;24784;45.582;5.276;2022-09-12T03:51:02;1.40;;;0.95;;
39016;SDS011;24784;45.582;5.276;2022-09-12T03:53:29;3.67;;;1.20;;
39016;SDS011;24784;45.582;5.276;2022-09-12T03:55:55;2.30;;;1.10;;
39016;SDS011;24784;45.582;5.276;2022-09-12T03:58:21;2.00;;;1.13;;
39016;SDS011;24784;45.582;5.276;2022-09-12T04:00:47;3.33;;;1.13;;
39016;SDS011;24784;45.582;5.276;2022-09-12T04:03:13;8.82;;;1.58;;
39016;SDS011;24784;45.582;5.276;2022-09-12T04:05:39;2.30;;;1.05;;
39016;SDS011;24784;45.582;5.276;2022-09-12T04:08:05;1.85;;;1.67;;
39016;SDS011;24784;45.582;5.276;2022-09-12T04:10:31;6.45;;;2.45;;
39016;SDS011;24784;45.582;5.276;2022-09-12T04:12:56;1.42;;;1.08;;
39016;SDS011;24784;45.582;5.276;2022-09-12T04:15:22;1.65;;;1.23;;
39016;SDS011;24784;45.582;5.276;2022-09-12T04:17:48;6.13;;;1.85;;
39016;SDS011;24784;45.582;5.276;2022-09-12T04:20:14;2.80;;;1.38;;
39016;SDS011;24784;45.582;5.276;2022-09-12T04:22:40;1.90;;;1.10;;
39016;SDS011;24784;45.582;5.276;2022-09-12T04:25:06;3.90;;;1.10;;
39016;SDS011;24784;45.582;5.276;2022-09-12T04:27:33;3.13;;;1.40;;
39016;SDS011;24784;45.582;5.276;2022-09-12T04:29:59;1.20;;;1.02;;
39016;SDS011;24784;45.582;5.276;2022-09-12T04:32:26;2.10;;;1.00;;
39016;SDS011;24784;45.582;5.276;2022-09-12T04:34:53;4.47;;;1.15;;
39016;SDS011;24784;45.582;5.276;2022-09-12T04:37:18;3.60;;;1.08;;
39016;SDS011;24784;45.582;5.276;2022-09-12T04:39:45;2.95;;;1.23;;
39016;SDS011;24784;45.582;5.276;2022-09-12T04:42:13;3.80;;;1.27;;
39016;SDS011;24784;45.582;5.276;2022-09-12T04:44:38;1.60;;;1.20;;
39016;SDS011;24784;45.582;5.276;2022-09-12T04:47:04;1.95;;;1.15;;
39016;SDS011;24784;45.582;5.276;2022-09-12T04:49:30;2.55;;;1.30;;
39016;SDS011;24784;45.582;5.276;2022-09-12T04:51:56;4.20;;;1.30;;
39016;SDS011;24784;45.582;5.276;2022-09-12T04:54:21;3.25;;;1.10;;
39016;SDS011;24784;45.582;5.276;2022-09-12T04:56:48;1.88;;;1.30;;
39016;SDS011;24784;45.582;5.276;2022-09-12T04:59:15;8.05;;;1.35;;
39016;SDS011;24784;45.582;5.276;2022-09-12T05:01:42;2.53;;;1.40;;
39016;SDS011;24784;45.582;5.276;2022-09-12T05:04:08;3.50;;;2.00;;
39016;SDS011;24784;45.582;5.276;2022-09-12T05:06:35;1.73;;;1.42;;
39016;SDS011;24784;45.582;5.276;2022-09-12T05:09:03;4.32;;;1.30;;
39016;SDS011;24784;45.582;5.276;2022-09-12T05:11:32;2.67;;;1.60;;
39016;SDS011;24784;45.582;5.276;2022-09-12T05:14:00;3.38;;;1.45;;
39016;SDS011;24784;45.582;5.276;2022-09-12T05:16:26;2.70;;;1.80;;
39016;SDS011;24784;45.582;5.276;2022-09-12T05:18:54;5.93;;;1.60;;
39016;SDS011;24784;45.582;5.276;2022-09-12T05:21:21;3.00;;;1.40;;
39016;SDS011;24784;45.582;5.276;2022-09-12T05:23:51;3.95;;;1.23;;
39016;SDS011;24784;45.582;5.276;2022-09-12T05:26:18;2.10;;;1.27;;
39016;SDS011;24784;45.582;5.276;2022-09-12T05:28:45;6.53;;;1.67;;
39016;SDS011;24784;45.582;5.276;2022-09-12T05:31:13;1.13;;;1.02;;
39016;SDS011;24784;45.582;5.276;2022-09-12T05:33:42;2.42;;;1.42;;
39016;SDS011;24784;45.582;5.276;2022-09-12T05:36:11;2.60;;;1.60;;
39016;SDS011;24784;45.582;5.276;2022-09-12T05:38:42;1.90;;;1.27;;
39016;SDS011;24784;45.582;5.276;2022-09-12T05:41:12;3.05;;;1.30;;
39016;SDS011;24784;45.582;5.276;2022-09-12T05:43:40;3.25;;;1.13;;
39016;SDS011;24784;45.582;5.276;2022-09-12T05:46:07;2.88;;;1.23;;
39016;SDS011;24784;45.582;5.276;2022-09-12T05:48:35;3.53;;;1.58;;
39016;SDS011;24784;45.582;5.276;2022-09-12T05:51:02;6.65;;;1.85;;
39016;SDS011;24784;45.582;5.276;2022-09-12T05:53:33;7.25;;;1.30;;
39016;SDS011;24784;45.582;5.276;2022-09-12T05:58:30;1.50;;;1.20;;
39016;SDS011;24784;45.582;5.276;2022-09-12T06:01:00;3.90;;;1.48;;
39016;SDS011;24784;45.582;5.276;2022-09-12T06:03:27;3.28;;;1.23;;
39016;SDS011;24784;45.582;5.276;2022-09-12T06:05:52;1.02;;;0.93;;
39016;SDS011;24784;45.582;5.276;2022-09-12T06:08:18;2.85;;;1.25;;
39016;SDS011;24784;45.582;5.276;2022-09-12T06:10:44;1.92;;;1.45;;
39016;SDS011;24784;45.582;5.276;2022-09-12T06:13:09;5.30;;;1.50;;
39016;SDS011;24784;45.582;5.276;2022-09-12T06:15:35;5.63;;;1.90;;
39016;SDS011;24784;45.582;5.276;2022-09-12T06:18:04;4.72;;;1.60;;
39016;SDS011;24784;45.582;5.276;2022-09-12T06:20:30;6.22;;;1.83;;
39016;SDS011;24784;45.582;5.276;2022-09-12T06:22:55;2.97;;;1.63;;
39016;SDS011;24784;45.582;5.276;2022-09-12T06:25:21;7.28;;;2.03;;
39016;SDS011;24784;45.582;5.276;2022-09-12T06:27:47;3.80;;;1.80;;
39016;SDS011;24784;45.582;5.276;2022-09-12T06:30:13;4.70;;;1.70;;
39016;SDS011;24784;45.582;5.276;2022-09-12T06:32:39;5.07;;;1.70;;
39016;SDS011;24784;45.582;5.276;2022-09-12T06:35:05;2.40;;;1.45;;
39016;SDS011;24784;45.582;5.276;2022-09-12T06:37:30;3.45;;;1.67;;
39016;SDS011;24784;45.582;5.276;2022-09-12T06:39:56;4.53;;;1.75;;
39016;SDS011;24784;45.582;5.276;2022-09-12T06:42:22;4.90;;;1.80;;
39016;SDS011;24784;45.582;5.276;2022-09-12T06:44:48;7.15;;;1.70;;
39016;SDS011;24784;45.582;5.276;2022-09-12T06:47:14;13.93;;;2.03;;
39016;SDS011;24784;45.582;5.276;2022-09-12T06:49:40;6.20;;;1.98;;
39016;SDS011;24784;45.582;5.276;2022-09-12T06:52:06;5.15;;;1.60;;
39016;SDS011;24784;45.582;5.276;2022-09-12T06:54:31;3.78;;;1.80;;
39016;SDS011;24784;45.582;5.276;2022-09-12T06:56:57;4.43;;;1.58;;
39016;SDS011;24784;45.582;5.276;2022-09-12T06:59:23;2.20;;;1.33;;
39016;SDS011;24784;45.582;5.276;2022-09-12T07:01:51;3.58;;;1.38;;
39016;SDS011;24784;45.582;5.276;2022-09-12T07:04:17;3.72;;;1.73;;
39016;SDS011;24784;45.582;5.276;2022-09-12T07:06:44;3.50;;;1.60;;
39016;SDS011;24784;45.582;5.276;2022-09-12T07:09:11;5.20;;;1.80;;
39016;SDS011;24784;45.582;5.276;2022-09-12T07:11:40;3.90;;;1.30;;
39016;SDS011;24784;45.582;5.276;2022-09-12T07:14:07;2.38;;;1.40;;
39016;SDS011;24784;45.582;5.276;2022-09-12T07:16:35;2.35;;;1.38;;
39016;SDS011;24784;45.582;5.276;2022-09-12T07:19:01;1.67;;;1.10;;
39016;SDS011;24784;45.582;5.276;2022-09-12T07:21:29;1.20;;;1.10;;
39016;SDS011;24784;45.582;5.276;2022-09-12T07:23:55;3.08;;;1.45;;
39016;SDS011;24784;45.582;5.276;2022-09-12T07:26:24;2.72;;;1.27;;
39016;SDS011;24784;45.582;5.276;2022-09-12T07:28:51;1.38;;;1.25;;
39016;SDS011;24784;45.582;5.276;2022-09-12T07:31:20;2.58;;;1.13;;
39016;SDS011;24784;45.582;5.276;2022-09-12T07:33:47;1.45;;;1.35;;
39016;SDS011;24784;45.582;5.276;2022-09-12T07:36:15;5.43;;;1.60;;
39016;SDS011;24784;45.582;5.276;2022-09-12T07:38:42;3.20;;;1.25;;
39016;SDS011;24784;45.582;5.276;2022-09-12T07:41:18;1.58;;;1.10;;
39016;SDS011;24784;45.582;5.276;2022-09-12T07:43:45;1.77;;;1.38;;
39016;SDS011;24784;45.582;5.276;2022-09-12T07:46:12;4.45;;;1.20;;
39016;SDS011;24784;45.582;5.276;2022-09-12T07:48:39;1.73;;;1.38;;
39016;SDS011;24784;45.582;5.276;2022-09-12T07:51:06;4.80;;;1.33;;
39016;SDS011;24784;45.582;5.276;2022-09-12T07:53:34;3.33;;;1.40;;
39016;SDS011;24784;45.582;5.276;2022-09-12T07:56:05;2.72;;;1.65;;
39016;SDS011;24784;45.582;5.276;2022-09-12T07:58:33;4.28;;;1.48;;
39016;SDS011;24784;45.582;5.276;2022-09-12T08:01:11;2.17;;;1.58;;
39016;SDS011;24784;45.582;5.276;2022-09-12T08:03:37;6.55;;;1.60;;
39016;SDS011;24784;45.582;5.276;2022-09-12T08:06:10;2.00;;;1.60;;
39016;SDS011;24784;45.582;5.276;2022-09-12T08:08:38;3.40;;;1.27;;
39016;SDS011;24784;45.582;5.276;2022-09-12T08:11:05;1.75;;;1.20;;
39016;SDS011;24784;45.582;5.276;2022-09-12T08:13:33;1.52;;;1.10;;
39016;SDS011;24784;45.582;5.276;2022-09-12T08:16:01;6.40;;;1.38;;
39016;SDS011;24784;45.582;5.276;2022-09-12T08:18:30;3.83;;;1.55;;
39016;SDS011;24784;45.582;5.276;2022-09-12T08:21:00;5.47;;;1.30;;
39016;SDS011;24784;45.582;5.276;2022-09-12T08:23:28;4.15;;;1.17;;
39016;SDS011;24784;45.582;5.276;2022-09-12T08:25:54;3.33;;;1.25;;
39016;SDS011;24784;45.582;5.276;2022-09-12T08:28:21;1.98;;;1.10;;
39016;SDS011;24784;45.582;5.276;2022-09-12T08:30:47;2.83;;;1.23;;
39016;SDS011;24784;45.582;5.276;2022-09-12T08:33:13;1.15;;;0.90;;
39016;SDS011;24784;45.582;5.276;2022-09-12T08:35:39;5.43;;;1.30;;
39016;SDS011;24784;45.582;5.276;2022-09-12T08:38:05;4.53;;;1.30;;
39016;SDS011;24784;45.582;5.276;2022-09-12T08:40:31;9.57;;;1.50;;
39016;SDS011;24784;45.582;5.276;2022-09-12T08:43:14;8.90;;;1.63;;
39016;SDS011;24784;45.582;5.276;2022-09-12T08:45:53;3.47;;;1.40;;
39016;SDS011;24784;45.582;5.276;2022-09-12T08:48:30;3.65;;;1.05;;
39016;SDS011;24784;45.582;5.276;2022-09-12T08:50:56;4.57;;;1.35;;
39016;SDS011;24784;45.582;5.276;2022-09-12T08:53:23;2.75;;;1.20;;
39016;SDS011;24784;45.582;5.276;2022-09-12T08:55:52;1.85;;;1.08;;
39016;SDS011;24784;45.582;5.276;2022-09-12T08:58:22;3.35;;;0.95;;
39016;SDS011;24784;45.582;5.276;2022-09-12T09:00:52;6.68;;;1.42;;
39016;SDS011;24784;45.582;5.276;2022-09-12T09:17:25;2.13;;;1.17;;
39016;SDS011;24784;45.582;5.276;2022-09-12T09:20:04;2.75;;;0.90;;
39016;SDS011;24784;45.582;5.276;2022-09-12T09:22:44;1.75;;;0.95;;
39016;SDS011;24784;45.582;5.276;2022-09-12T09:25:19;2.65;;;0.80;;
39016;SDS011;24784;45.582;5.276;2022-09-12T09:30:47;2.03;;;0.98;;
39016;SDS011;24784;45.582;5.276;2022-09-12T09:33:33;7.55;;;1.27;;
39016;SDS011;24784;45.582;5.276;2022-09-12T09:36:02;4.38;;;1.65;;
39016;SDS011;24784;45.582;5.276;2022-09-12T09:38:40;1.00;;;0.82;;
39016;SDS011;24784;45.582;5.276;2022-09-12T09:44:04;1.58;;;0.88;;
39016;SDS011;24784;45.582;5.276;2022-09-12T09:46:30;1.45;;;0.85;;
39016;SDS011;24784;45.582;5.276;2022-09-12T09:48:56;1.48;;;0.88;;
39016;SDS011;24784;45.582;5.276;2022-09-12T09:51:32;2.72;;;0.88;;
39016;SDS011;24784;45.582;5.276;2022-09-12T09:56:36;1.30;;;0.77;;
39016;SDS011;24784;45.582;5.276;2022-09-12T09:59:19;2.33;;;0.90;;
39016;SDS011;24784;45.582;5.276;2022-09-12T10:02:02;5.95;;;1.00;;
39016;SDS011;24784;45.582;5.276;2022-09-12T10:05:05;1.33;;;0.98;;
39016;SDS011;24784;45.582;5.276;2022-09-12T10:07:30;1.83;;;0.90;;
39016;SDS011;24784;45.582;5.276;2022-09-12T10:10:14;4.22;;;0.93;;
39016;SDS011;24784;45.582;5.276;2022-09-12T10:12:41;3.45;;;1.33;;
39016;SDS011;24784;45.582;5.276;2022-09-12T10:15:20;1.77;;;1.00;;
39016;SDS011;24784;45.582;5.276;2022-09-12T10:17:50;3.55;;;0.70;;
39016;SDS011;24784;45.582;5.276;2022-09-12T10:20:31;3.50;;;0.82;;
39016;SDS011;24784;45.582;5.276;2022-09-12T10:26:09;1.80;;;0.75;;
39016;SDS011;24784;45.582;5.276;2022-09-12T10:28:41;1.77;;;0.85;;
39016;SDS011;24784;45.582;5.276;2022-09-12T10:31:28;2.65;;;0.80;;
39016;SDS011;24784;45.582;5.276;2022-09-12T10:34:09;6.43;;;0.93;;
39016;SDS011;24784;45.582;5.276;2022-09-12T10:36:46;3.47;;;0.98;;
39016;SDS011;24784;45.582;5.276;2022-09-12T10:39:16;7.82;;;0.80;;
39016;SDS011;24784;45.582;5.276;2022-09-12T10:41:43;1.80;;;0.90;;
39016;SDS011;24784;45.582;5.276;2022-09-12T10:44:14;1.90;;;0.75;;
39016;SDS011;24784;45.582;5.276;2022-09-12T10:46:42;1.30;;;0.85;;
39016;SDS011;24784;45.582;5.276;2022-09-12T10:49:11;1.90;;;0.82;;
39016;SDS011;24784;45.582;5.276;2022-09-12T10:51:43;4.38;;;0.70;;
39016;SDS011;24784;45.582;5.276;2022-09-12T10:54:09;2.08;;;0.70;;
39016;SDS011;24784;45.582;5.276;2022-09-12T11:02:13;5.47;;;1.45;;
39016;SDS011;24784;45.582;5.276;2022-09-12T11:04:47;2.08;;;0.73;;
39016;SDS011;24784;45.582;5.276;2022-09-12T11:15:15;1.67;;;0.70;;
39016;SDS011;24784;45.582;5.276;2022-09-12T11:26:43;2.75;;;0.80;;
39016;SDS011;24784;45.582;5.276;2022-09-12T11:29:42;4.33;;;0.60;;
39016;SDS011;24784;45.582;5.276;2022-09-12T11:32:51;2.90;;;0.70;;
39016;SDS011;24784;45.582;5.276;2022-09-12T11:35:27;6.07;;;0.98;;
39016;SDS011;24784;45.582;5.276;2022-09-12T11:38:16;1.63;;;0.50;;
39016;SDS011;24784;45.582;5.276;2022-09-12T11:41:00;4.38;;;0.70;;
39016;SDS011;24784;45.582;5.276;2022-09-12T11:51:56;2.03;;;0.52;;
39016;SDS011;24784;45.582;5.276;2022-09-12T11:57:25;1.70;;;0.75;;
39016;SDS011;24784;45.582;5.276;2022-09-12T12:00:17;0.93;;;0.70;;
39016;SDS011;24784;45.582;5.276;2022-09-12T12:08:06;3.28;;;0.57;;
39016;SDS011;24784;45.582;5.276;2022-09-12T12:10:43;2.85;;;0.70;;
39016;SDS011;24784;45.582;5.276;2022-09-12T12:15:53;4.05;;;0.95;;
39016;SDS011;24784;45.582;5.276;2022-09-12T12:18:25;2.70;;;0.60;;
39016;SDS011;24784;45.582;5.276;2022-09-12T12:20:53;3.72;;;0.75;;
39016;SDS011;24784;45.582;5.276;2022-09-12T12:26:00;1.98;;;0.82;;
39016;SDS011;24784;45.582;5.276;2022-09-12T12:31:06;2.17;;;0.60;;
39016;SDS011;24784;45.582;5.276;2022-09-12T12:36:02;1.25;;;0.75;;
39016;SDS011;24784;45.582;5.276;2022-09-12T12:38:36;2.75;;;0.70;;
39016;SDS011;24784;45.582;5.276;2022-09-12T12:43:43;2.70;;;0.68;;
39016;SDS011;24784;45.582;5.276;2022-09-12T12:46:13;3.40;;;0.80;;
39016;SDS011;24784;45.582;5.276;2022-09-12T12:53:59;4.32;;;0.57;;
39016;SDS011;24784;45.582;5.276;2022-09-12T12:59:03;3.92;;;1.00;;
39016;SDS011;24784;45.582;5.276;2022-09-12T13:01:50;0.77;;;0.60;;
39016;SDS011;24784;45.582;5.276;2022-09-12T13:04:20;4.75;;;0.80;;
39016;SDS011;24784;45.582;5.276;2022-09-12T13:06:56;3.40;;;0.68;;
39016;SDS011;24784;45.582;5.276;2022-09-12T13:12:10;2.15;;;0.65;;
39016;SDS011;24784;45.582;5.276;2022-09-12T13:14:53;2.10;;;0.60;;
39016;SDS011;24784;45.582;5.276;2022-09-12T13:17:29;7.82;;;0.60;;
39016;SDS011;24784;45.582;5.276;2022-09-12T13:22:41;1.98;;;0.40;;
39016;SDS011;24784;45.582;5.276;2022-09-12T13:25:19;1.60;;;0.50;;
39016;SDS011;24784;45.582;5.276;2022-09-12T13:28:00;2.03;;;0.70;;
39016;SDS011;24784;45.582;5.276;2022-09-12T13:30:32;0.82;;;0.45;;
39016;SDS011;24784;45.582;5.276;2022-09-12T13:33:49;1.00;;;0.68;;
39016;SDS011;24784;45.582;5.276;2022-09-12T13:39:16;0.45;;;0.45;;
39016;SDS011;24784;45.582;5.276;2022-09-12T13:44:56;0.98;;;0.40;;
39016;SDS011;24784;45.582;5.276;2022-09-12T13:49:59;3.65;;;0.47;;
39016;SDS011;24784;45.582;5.276;2022-09-12T13:52:31;1.27;;;0.43;;
39016;SDS011;24784;45.582;5.276;2022-09-12T13:54:59;3.13;;;0.47;;
39016;SDS011;24784;45.582;5.276;2022-09-12T13:57:34;0.93;;;0.50;;
39016;SDS011;24784;45.582;5.276;2022-09-12T14:00:06;1.27;;;0.50;;
39016;SDS011;24784;45.582;5.276;2022-09-12T14:02:43;2.50;;;0.50;;
39016;SDS011;24784;45.582;5.276;2022-09-12T14:05:17;4.18;;;0.60;;
39016;SDS011;24784;45.582;5.276;2022-09-12T14:07:54;2.42;;;0.55;;
39016;SDS011;24784;45.582;5.276;2022-09-12T14:10:25;1.45;;;0.40;;
39016;SDS011;24784;45.582;5.276;2022-09-12T14:12:58;0.93;;;0.30;;
39016;SDS011;24784;45.582;5.276;2022-09-12T14:15:28;0.95;;;0.40;;
39016;SDS011;24784;45.582;5.276;2022-09-12T14:17:57;1.40;;;0.50;;
39016;SDS011;24784;45.582;5.276;2022-09-12T14:20:25;7.03;;;0.57;;
39016;SDS011;24784;45.582;5.276;2022-09-12T14:25:26;2.35;;;0.50;;
39016;SDS011;24784;45.582;5.276;2022-09-12T14:27:57;3.05;;;0.50;;
39016;SDS011;24784;45.582;5.276;2022-09-12T14:30:30;1.10;;;0.40;;
39016;SDS011;24784;45.582;5.276;2022-09-12T14:33:02;1.10;;;0.40;;
39016;SDS011;24784;45.582;5.276;2022-09-12T14:35:34;4.57;;;0.63;;
39016;SDS011;24784;45.582;5.276;2022-09-12T14:38:11;2.95;;;0.47;;
39016;SDS011;24784;45.582;5.276;2022-09-12T14:40:46;4.43;;;0.65;;
39016;SDS011;24784;45.582;5.276;2022-09-12T14:46:15;1.45;;;0.75;;
39016;SDS011;24784;45.582;5.276;2022-09-12T14:48:50;3.55;;;0.60;;
39016;SDS011;24784;45.582;5.276;2022-09-12T14:51:42;3.08;;;0.50;;
39016;SDS011;24784;45.582;5.276;2022-09-12T14:54:56;1.48;;;0.55;;
39016;SDS011;24784;45.582;5.276;2022-09-12T14:57:04;1.85;;;0.70;;
39016;SDS011;24784;45.582;5.276;2022-09-12T14:59:40;0.43;;;0.40;;
39016;SDS011;24784;45.582;5.276;2022-09-12T15:04:47;1.83;;;0.50;;
39016;SDS011;24784;45.582;5.276;2022-09-12T15:09:56;1.98;;;0.70;;
39016;SDS011;24784;45.582;5.276;2022-09-12T15:12:23;1.27;;;0.60;;
39016;SDS011;24784;45.582;5.276;2022-09-12T15:14:49;2.70;;;0.70;;
39016;SDS011;24784;45.582;5.276;2022-09-12T15:17:14;2.15;;;0.60;;
39016;SDS011;24784;45.582;5.276;2022-09-12T15:19:40;1.23;;;0.60;;
39016;SDS011;24784;45.582;5.276;2022-09-12T15:22:11;1.23;;;0.57;;
39016;SDS011;24784;45.582;5.276;2022-09-12T15:24:37;0.73;;;0.40;;
39016;SDS011;24784;45.582;5.276;2022-09-12T15:27:07;3.15;;;0.70;;
39016;SDS011;24784;45.582;5.276;2022-09-12T15:29:37;0.97;;;0.60;;
39016;SDS011;24784;45.582;5.276;2022-09-12T15:32:03;0.65;;;0.60;;
39016;SDS011;24784;45.582;5.276;2022-09-12T15:34:30;0.95;;;0.70;;
39016;SDS011;24784;45.582;5.276;2022-09-12T15:36:56;3.75;;;0.80;;
39016;SDS011;24784;45.582;5.276;2022-09-12T15:39:22;1.40;;;0.70;;
39016;SDS011;24784;45.582;5.276;2022-09-12T15:41:47;3.90;;;0.80;;
39016;SDS011;24784;45.582;5.276;2022-09-12T15:44:13;2.70;;;0.70;;
39016;SDS011;24784;45.582;5.276;2022-09-12T15:46:39;2.67;;;0.90;;
39016;SDS011;24784;45.582;5.276;2022-09-12T15:49:05;2.88;;;0.80;;
39016;SDS011;24784;45.582;5.276;2022-09-12T15:51:31;1.10;;;0.70;;
39016;SDS011;24784;45.582;5.276;2022-09-12T15:53:58;1.65;;;0.70;;
39016;SDS011;24784;45.582;5.276;2022-09-12T15:56:25;2.10;;;0.98;;
39016;SDS011;24784;45.582;5.276;2022-09-12T15:58:51;1.00;;;0.60;;
39016;SDS011;24784;45.582;5.276;2022-09-12T16:01:17;1.13;;;0.82;;
39016;SDS011;24784;45.582;5.276;2022-09-12T16:03:46;1.90;;;0.70;;
39016;SDS011;24784;45.582;5.276;2022-09-12T16:06:12;1.63;;;0.80;;
39016;SDS011;24784;45.582;5.276;2022-09-12T16:08:39;1.40;;;0.80;;
39016;SDS011;24784;45.582;5.276;2022-09-12T16:13:48;4.63;;;0.95;;
39016;SDS011;24784;45.582;5.276;2022-09-12T16:16:13;2.15;;;0.70;;
39016;SDS011;24784;45.582;5.276;2022-09-12T16:18:39;4.85;;;0.90;;
39016;SDS011;24784;45.582;5.276;2022-09-12T16:21:06;2.35;;;0.85;;
39016;SDS011;24784;45.582;5.276;2022-09-12T16:23:32;3.60;;;0.82;;
39016;SDS011;24784;45.582;5.276;2022-09-12T16:26:04;6.47;;;1.02;;
39016;SDS011;24784;45.582;5.276;2022-09-12T16:28:30;2.65;;;1.00;;
39016;SDS011;24784;45.582;5.276;2022-09-12T16:31:00;1.50;;;1.00;;
39016;SDS011;24784;45.582;5.276;2022-09-12T16:33:28;1.10;;;0.70;;
39016;SDS011;24784;45.582;5.276;2022-09-12T16:36:00;13.57;;;1.23;;
39016;SDS011;24784;45.582;5.276;2022-09-12T16:38:40;4.57;;;0.90;;
39016;SDS011;24784;45.582;5.276;2022-09-12T16:41:07;1.42;;;0.95;;
39016;SDS011;24784;45.582;5.276;2022-09-12T16:43:34;5.35;;;1.42;;
39016;SDS011;24784;45.582;5.276;2022-09-12T16:46:05;1.67;;;0.90;;
39016;SDS011;24784;45.582;5.276;2022-09-12T16:48:32;1.90;;;1.08;;
39016;SDS011;24784;45.582;5.276;2022-09-12T16:51:00;1.35;;;1.00;;
39016;SDS011;24784;45.582;5.276;2022-09-12T16:53:31;4.35;;;1.02;;
39016;SDS011;24784;45.582;5.276;2022-09-12T16:55:58;3.90;;;1.10;;
39016;SDS011;24784;45.582;5.276;2022-09-12T16:58:25;2.03;;;1.00;;
39016;SDS011;24784;45.582;5.276;2022-09-12T17:00:59;2.60;;;1.15;;
39016;SDS011;24784;45.582;5.276;2022-09-12T17:06:08;2.13;;;1.10;;
39016;SDS011;24784;45.582;5.276;2022-09-12T17:08:37;1.45;;;1.20;;
39016;SDS011;24784;45.582;5.276;2022-09-12T17:11:07;2.65;;;1.25;;
39016;SDS011;24784;45.582;5.276;2022-09-12T17:13:37;1.83;;;1.43;;
39016;SDS011;24784;45.582;5.276;2022-09-12T17:16:04;4.55;;;1.20;;
39016;SDS011;24784;45.582;5.276;2022-09-12T17:18:33;4.97;;;1.25;;
39016;SDS011;24784;45.582;5.276;2022-09-12T17:20:59;2.97;;;1.30;;
39016;SDS011;24784;45.582;5.276;2022-09-12T17:23:25;4.60;;;1.30;;
39016;SDS011;24784;45.582;5.276;2022-09-12T17:25:51;4.20;;;1.25;;
39016;SDS011;24784;45.582;5.276;2022-09-12T17:28:17;4.50;;;1.30;;
39016;SDS011;24784;45.582;5.276;2022-09-12T17:30:43;4.65;;;1.30;;
39016;SDS011;24784;45.582;5.276;2022-09-12T17:33:09;2.10;;;1.08;;
39016;SDS011;24784;45.582;5.276;2022-09-12T17:35:36;6.80;;;1.27;;
39016;SDS011;24784;45.582;5.276;2022-09-12T17:38:03;1.65;;;1.25;;
39016;SDS011;24784;45.582;5.276;2022-09-12T17:40:29;3.22;;;1.35;;
39016;SDS011;24784;45.582;5.276;2022-09-12T17:42:55;4.57;;;1.83;;